No particular awareness of the weather is required.    There are no Weather-warnings


Meteo18 Weather Cam more information Meteo18 Weather Cam


Thunder radar more information blitzortung!


Rain radar more information rain snow radar


Visit our other weather sites:

Template documentation
and downloads

And another site



Weather Underground History page Text

Daily Summary for October 30, 2017 Units:  English    Metric   Both
« Previous Day
Next Day »
Daily Weekly Monthly Yearly Custom
  High: Low: Average:
Temperature: TemperatureC °F 3.4 °F 7.5 °F
Dew Point: DewpointC °F 2.7 °F 4.5 °F
Humidity: Humidity % 66 % 81 %
Wind Speed: WindSpeedKMH mph 0.0 mph 8 mph
Wind Gust: WindSpeedGustKMH mph - -
Wind:- - East
Pressure: PressurehPa in 1024.3 in -
Precipitation: 0.0 in    
Historical Graphs
 
 
Tabular Data for October 30, 2017
Time Temperature Dew Point Pressure Wind Wind Speed Wind Gust Humidity Rainfall Rate (Hourly)
TemperatureC °F DewpointC °F PressurehPa in Calm     Humidity % HourlyPrecipMM in
00:02 7.9 °F 6.0 °F 1024.3 in NNE 12.9 mph 17.7 mph 88 % 0.0 in
00:12 7.6 °F 5.9 °F 1024.3 in NNW 3.2 mph 17.7 mph 89 % 0.0 in
00:17 7.4 °F 5.7 °F 1024.3 in NW 6.4 mph 14.5 mph 89 % 0.0 in
00:22 7.3 °F 5.6 °F 1024.6 in ENE 1.6 mph 14.5 mph 89 % 0.0 in
00:32 7.1 °F 5.4 °F 1024.6 in North 8.0 mph 17.7 mph 89 % 0.0 in
00:42 6.9 °F 5.4 °F 1024.6 in North 4.8 mph 14.5 mph 90 % 0.0 in
00:47 6.9 °F 5.2 °F 1024.6 in NNW 8.0 mph 14.5 mph 89 % 0.0 in
00:52 6.8 °F 5.3 °F 1024.6 in NNE 4.8 mph 17.7 mph 90 % 0.0 in
01:02 6.7 °F 5.2 °F 1024.6 in ENE 6.4 mph 19.3 mph 90 % 0.0 in
01:12 6.6 °F 5.1 °F 1024.6 in NW 4.8 mph 19.3 mph 90 % 0.0 in
01:17 6.6 °F 5.1 °F 1024.6 in Calm   12.9 mph 90 % 0.0 in
01:22 6.5 °F 5.0 °F 1024.6 in NNE 4.8 mph 16.1 mph 90 % 0.0 in
01:27 6.5 °F 5.0 °F 1024.9 in NNE 1.6 mph 16.1 mph 90 % 0.0 in
01:32 6.5 °F 5.1 °F 1024.9 in NE 1.6 mph 16.1 mph 91 % 0.0 in
01:37 6.4 °F 5.0 °F 1024.9 in NE 6.4 mph 12.9 mph 91 % 0.0 in
01:42 6.3 °F 4.9 °F 1024.9 in NNE 6.4 mph 12.9 mph 91 % 0.0 in
01:52 6.2 °F 4.8 °F 1024.9 in NE 8.0 mph 11.3 mph 91 % 0.0 in
01:57 6.1 °F 4.7 °F 1024.9 in Calm   11.3 mph 91 % 0.0 in
02:02 6.1 °F 4.7 °F 1024.9 in NE 6.4 mph 11.3 mph 91 % 0.0 in
02:12 6.1 °F 4.9 °F 1024.9 in WNW 3.2 mph 14.5 mph 92 % 0.0 in
02:17 6.1 °F 4.9 °F 1024.9 in North 11.3 mph 14.5 mph 92 % 0.0 in
02:22 6.1 °F 4.9 °F 1024.9 in NE 4.8 mph 16.1 mph 92 % 0.0 in
02:27 6.0 °F 4.6 °F 1024.9 in North 6.4 mph 16.1 mph 91 % 0.0 in
02:32 5.9 °F 4.7 °F 1024.9 in North 4.8 mph 14.5 mph 92 % 0.0 in
02:42 5.8 °F 4.6 °F 1024.9 in NNE 4.8 mph 16.1 mph 92 % 0.0 in
02:47 5.8 °F 4.6 °F 1024.9 in Calm   16.1 mph 92 % 0.0 in
02:57 5.7 °F 4.5 °F 1024.9 in NNE 6.4 mph 16.1 mph 92 % 0.0 in
03:02 5.6 °F 4.4 °F 1024.9 in NE 3.2 mph 14.5 mph 92 % 0.0 in
03:12 5.5 °F 4.3 °F 1024.9 in NE 8.0 mph 12.9 mph 92 % 0.0 in
03:17 5.2 °F 4.0 °F 1024.9 in North 1.6 mph 12.9 mph 92 % 0.0 in
03:22 5.2 °F 4.0 °F 1024.9 in North 1.6 mph 12.9 mph 92 % 0.0 in
03:27 5.2 °F 4.0 °F 1024.9 in North 1.6 mph 12.9 mph 92 % 0.0 in
07:57 3.4 °F 2.7 °F 1027.0 in Calm   -1607.4 mph 95 % 0 in
08:02 3.5 °F 2.8 °F 1027.3 in North 1.6 mph -1607.4 mph 95 % 0 in
08:07 3.6 °F 3.0 °F 1027.3 in Calm   4.8 mph 96 % 0.0 in
08:12 3.6 °F 3.0 °F 1027.3 in Calm   4.8 mph 96 % 0.0 in
08:22 3.9 °F 3.3 °F 1027.7 in North 1.6 mph 8.0 mph 96 % 0.0 in
08:27 4.0 °F 3.4 °F 1027.3 in NNE 3.2 mph 8.0 mph 96 % 0.0 in
08:32 4.1 °F 3.4 °F 1027.7 in NNE 8.0 mph 8.0 mph 95 % 0.0 in
08:37 4.3 °F 3.6 °F 1027.7 in Calm   11.3 mph 95 % 0.0 in
08:42 4.4 °F 3.7 °F 1027.7 in NW 1.6 mph 11.3 mph 95 % 0.0 in
08:52 4.8 °F 4.1 °F 1027.7 in NNW 3.2 mph 11.3 mph 95 % 0.0 in
08:57 4.9 °F 4.2 °F 1027.7 in NE 4.8 mph 9.7 mph 95 % 0.0 in
09:02 5.1 °F 4.4 °F 1027.7 in NNW 4.8 mph 9.7 mph 95 % 0.0 in
09:12 5.6 °F 4.6 °F 1027.7 in NNE 1.6 mph 14.5 mph 93 % 0.0 in
09:22 5.9 °F 4.7 °F 1027.7 in NNE 6.4 mph 16.1 mph 92 % 0.0 in
09:32 6.2 °F 4.7 °F 1027.7 in NE 8.0 mph 19.3 mph 90 % 0.0 in
09:37 6.3 °F 4.8 °F 1027.7 in NE 12.9 mph 17.7 mph 90 % 0.0 in
09:42 6.4 °F 4.9 °F 1027.3 in NE 9.7 mph 17.7 mph 90 % 0.0 in
09:52 6.6 °F 4.9 °F 1027.3 in North 6.4 mph 17.7 mph 89 % 0.0 in
09:57 6.7 °F 5.0 °F 1027.7 in NE 9.7 mph 20.9 mph 89 % 0.0 in
10:02 6.8 °F 5.1 °F 1027.7 in North 12.9 mph 20.9 mph 89 % 0.0 in
10:07 6.8 °F 5.0 °F 1027.7 in NE 11.3 mph 17.7 mph 88 % 0.0 in
10:12 6.9 °F 5.1 °F 1027.7 in NNE 11.3 mph 17.7 mph 88 % 0.0 in
10:17 6.9 °F 5.1 °F 1027.3 in NE 17.7 mph 20.9 mph 88 % 0.0 in
10:22 7.1 °F 5.2 °F 1027.3 in NNE 8.0 mph 20.9 mph 88 % 0.0 in
10:27 7.2 °F 5.2 °F 1027.3 in NE 6.4 mph 22.5 mph 87 % 0.0 in
10:32 7.4 °F 5.4 °F 1027.3 in NE 11.3 mph 22.5 mph 87 % 0.0 in
10:42 7.7 °F 5.7 °F 1027.3 in NNE 20.9 mph 20.9 mph 87 % 0.0 in
10:47 7.7 °F 5.5 °F 1027.7 in NNE 4.8 mph 20.9 mph 86 % 0.0 in
10:52 7.8 °F 5.4 °F 1027.7 in NNE 19.3 mph 20.9 mph 85 % 0.0 in
11:02 7.9 °F 5.5 °F 1027.7 in NE 14.5 mph 25.7 mph 85 % 0.0 in
11:07 8.2 °F 5.8 °F 1027.7 in NE 20.9 mph 25.7 mph 85 % 0.0 in
11:12 8.1 °F 5.7 °F 1027.7 in North 14.5 mph 25.7 mph 85 % 0.0 in
11:17 8.2 °F 5.7 °F 1027.7 in NE 6.4 mph 29.0 mph 84 % 0.0 in
11:27 8.4 °F 6.0 °F 1027.7 in NNE 19.3 mph 27.4 mph 85 % 0.0 in
11:32 8.6 °F 6.0 °F 1027.7 in NE 9.7 mph 27.4 mph 84 % 0.0 in
11:37 8.8 °F 6.2 °F 1027.7 in ENE 8.0 mph 27.4 mph 84 % 0.0 in
11:42 8.9 °F 6.0 °F 1027.7 in North 19.3 mph 27.4 mph 82 % 0.0 in
11:47 9.0 °F 6.1 °F 1027.7 in NNE 9.7 mph 25.7 mph 82 % 0.0 in
11:52 9.2 °F 6.5 °F 1027.7 in NNE 12.9 mph 25.7 mph 83 % 0.0 in
11:57 9.2 °F 5.9 °F 1027.7 in NNE 11.3 mph 22.5 mph 80 % 0.0 in
12:02 9.2 °F 5.7 °F 1027.7 in NNE 14.5 mph 22.5 mph 79 % 0.0 in
12:12 9.5 °F 5.7 °F 1027.3 in NE 6.4 mph 25.7 mph 77 % 0.0 in
12:17 9.6 °F 5.6 °F 1027.7 in NNE 11.3 mph 25.7 mph 76 % 0.0 in
12:22 10.0 °F 6.2 °F 1027.3 in NE 4.8 mph 25.7 mph 77 % 0.0 in
12:32 10.2 °F 6.0 °F 1027.3 in NE 16.1 mph 27.4 mph 75 % 0.0 in
12:37 10.3 °F 5.7 °F 1027.7 in NE 22.5 mph 27.4 mph 73 % 0.0 in
12:42 10.2 °F 5.4 °F 1027.7 in ENE 9.7 mph 25.7 mph 72 % 0.0 in
12:52 10.2 °F 5.0 °F 1027.3 in NW 9.7 mph 25.7 mph 70 % 0.0 in
12:57 10.2 °F 4.8 °F 1027.3 in ENE 12.9 mph 30.6 mph 69 % 0.0 in
13:02 10.1 °F 4.9 °F 1027.3 in NNE 14.5 mph 30.6 mph 70 % 0.0 in
13:12 9.9 °F 4.7 °F 1027.3 in NE 19.3 mph 35.4 mph 70 % 0.0 in
13:22 9.9 °F 4.5 °F 1027.3 in ENE 16.1 mph 33.8 mph 69 % 0.0 in
13:32 9.9 °F 4.9 °F 1027.3 in NE 14.5 mph 25.7 mph 71 % 0.0 in
13:37 10.2 °F 5.0 °F 1027.3 in NE 11.3 mph 25.7 mph 70 % 0.0 in
13:42 10.0 °F 4.6 °F 1027.3 in North 16.1 mph 25.7 mph 69 % 0.0 in
13:52 9.9 °F 5.1 °F 1027.7 in NE 12.9 mph 27.4 mph 72 % 0.0 in
13:57 10.3 °F 5.7 °F 1027.3 in NE 8.0 mph 27.4 mph 73 % 0.0 in
14:02 10.2 °F 4.6 °F 1027.3 in NNE 27.4 mph 27.4 mph 68 % 0.0 in
14:12 9.8 °F 4.6 °F 1027.3 in ENE 14.5 mph 29.0 mph 70 % 0.0 in
14:17 10.0 °F 4.4 °F 1027.3 in ENE 17.7 mph 29.0 mph 68 % 0.0 in
14:22 10.3 °F 4.7 °F 1027.3 in ENE 8.0 mph 25.7 mph 68 % 0.0 in
14:32 10.7 °F 5.0 °F 1027.3 in NE 8.0 mph 25.7 mph 68 % 0.0 in
14:37 10.8 °F 5.1 °F 1027.3 in NE 17.7 mph 25.7 mph 68 % 0.0 in
14:42 10.6 °F 4.9 °F 1027.3 in NE 11.3 mph 25.7 mph 68 % 0.0 in
14:52 10.4 °F 4.5 °F 1027.3 in NNW 12.9 mph 30.6 mph 67 % 0.0 in
14:57 10.6 °F 4.5 °F 1027.3 in ENE 9.7 mph 30.6 mph 66 % 0.0 in
15:02 10.4 °F 4.5 °F 1027.3 in NE 14.5 mph 30.6 mph 67 % 0.0 in
15:12 10.4 °F 4.7 °F 1027.3 in NE 9.7 mph 24.1 mph 68 % 0.0 in
15:17 10.5 °F 5.1 °F 1027.3 in NNE 12.9 mph 24.1 mph 69 % 0.0 in
15:22 10.4 °F 5.2 °F 1027.3 in NE 11.3 mph 27.4 mph 70 % 0.0 in
15:27 10.1 °F 4.9 °F 1027.7 in NNE 6.4 mph 27.4 mph 70 % 0.0 in
15:32 9.9 °F 5.1 °F 1027.7 in North 9.7 mph 24.1 mph 72 % 0.0 in
15:42 10.1 °F 5.1 °F 1027.7 in North 11.3 mph 24.1 mph 71 % 0.0 in
15:52 10.2 °F 5.0 °F 1027.7 in NNW 8.0 mph 27.4 mph 70 % 0.0 in
15:57 10.2 °F 5.2 °F 1027.7 in NE 4.8 mph 27.4 mph 71 % 0.0 in
16:02 10.2 °F 4.8 °F 1027.7 in NNE 8.0 mph 27.4 mph 69 % 0.0 in
16:12 10.1 °F 4.7 °F 1027.7 in NE 16.1 mph 25.7 mph 69 % 0.0 in
16:17 10.1 °F 4.9 °F 1027.7 in NNE 17.7 mph 25.7 mph 70 % 0.0 in
16:22 10.0 °F 5.0 °F 1027.7 in NE 16.1 mph 25.7 mph 71 % 0.0 in
16:32 10.0 °F 4.8 °F 1027.7 in NNE 9.7 mph 24.1 mph 70 % 0.0 in
16:37 10.1 °F 4.9 °F 1027.7 in ENE 12.9 mph 22.5 mph 70 % 0.0 in
16:42 10.0 °F 4.8 °F 1027.7 in NE 12.9 mph 22.5 mph 70 % 0.0 in
16:47 9.9 °F 4.7 °F 1027.7 in NE 16.1 mph 22.5 mph 70 % 0.0 in
16:52 9.8 °F 4.6 °F 1027.7 in NNE 6.4 mph 19.3 mph 70 % 0.0 in
16:57 9.8 °F 4.4 °F 1027.7 in NE 9.7 mph 19.3 mph 69 % 0.0 in
17:02 9.8 °F 4.4 °F 1027.7 in NE 8.0 mph 19.3 mph 69 % 0.0 in
17:12 9.8 °F 4.6 °F 1027.7 in NE 6.4 mph 17.7 mph 70 % 0.0 in
17:17 9.7 °F 4.5 °F 1027.7 in NE 20.9 mph 20.9 mph 70 % 0.0 in
17:22 9.6 °F 4.4 °F 1027.7 in NE 11.3 mph 20.9 mph 70 % 0.0 in
17:32 9.2 °F 4.4 °F 1028.0 in NNE 1.6 mph 22.5 mph 72 % 0.0 in
17:37 8.9 °F 4.3 °F 1028.0 in NE 4.8 mph 22.5 mph 73 % 0.0 in
17:42 8.8 °F 4.4 °F 1028.0 in ENE 8.0 mph 22.5 mph 74 % 0.0 in
17:47 8.8 °F 4.2 °F 1028.0 in NE 14.5 mph 19.3 mph 73 % 0.0 in
17:52 8.8 °F 4.2 °F 1028.0 in NNW 3.2 mph 19.3 mph 73 % 0.0 in
17:57 8.9 °F 4.3 °F 1028.0 in NNE 8.0 mph 20.9 mph 73 % 0.0 in
18:02 8.8 °F 4.4 °F 1028.3 in NE 11.3 mph 20.9 mph 74 % 0.0 in
18:12 8.8 °F 4.6 °F 1028.3 in NE 8.0 mph 19.3 mph 75 % 0.0 in
18:17 8.7 °F 4.5 °F 1028.3 in NE 4.8 mph 12.9 mph 75 % 0.0 in
18:22 8.6 °F 4.4 °F 1028.7 in NE 4.8 mph 12.9 mph 75 % 0.0 in
18:32 8.4 °F 4.4 °F 1028.7 in NNE 4.8 mph 19.3 mph 76 % 0.0 in
18:42 8.3 °F 4.3 °F 1028.7 in NE 12.9 mph 17.7 mph 76 % 0.0 in
18:52 8.2 °F 4.4 °F 1028.7 in North 9.7 mph 17.7 mph 77 % 0.0 in
18:57 8.1 °F 4.3 °F 1028.7 in NNE 9.7 mph 17.7 mph 77 % 0.0 in
19:02 7.9 °F 4.3 °F 1028.7 in ENE 6.4 mph 17.7 mph 78 % 0.0 in
19:12 7.5 °F 4.1 °F 1028.7 in NNE 3.2 mph 16.1 mph 79 % 0.0 in
19:17 7.4 °F 4.0 °F 1028.3 in NE 9.7 mph 11.3 mph 79 % 0.0 in
19:22 7.5 °F 4.1 °F 1028.7 in NE 11.3 mph 12.9 mph 79 % 0.0 in
19:32 7.4 °F 4.2 °F 1028.7 in NE 8.0 mph 14.5 mph 80 % 0.0 in
19:37 7.4 °F 4.2 °F 1028.7 in NE 6.4 mph 14.5 mph 80 % 0.0 in
19:42 7.4 °F 4.2 °F 1028.7 in ENE 14.5 mph 14.5 mph 80 % 0.0 in
19:47 7.4 °F 4.0 °F 1028.7 in NE 6.4 mph 14.5 mph 79 % 0.0 in
19:52 7.4 °F 4.0 °F 1028.7 in NE 1.6 mph 17.7 mph 79 % 0.0 in
19:57 7.3 °F 3.9 °F 1028.7 in NNE 8.0 mph 17.7 mph 79 % 0.0 in
20:12 7.2 °F 4.0 °F 1028.7 in NNE 3.2 mph 16.1 mph 80 % 0.0 in
20:17 7.1 °F 3.9 °F 1028.7 in NNE 4.8 mph 16.1 mph 80 % 0.0 in
20:22 7.1 °F 3.9 °F 1028.7 in North 6.4 mph 16.1 mph 80 % 0.0 in
20:27 7.0 °F 3.8 °F 1028.7 in North 6.4 mph 14.5 mph 80 % 0.0 in
20:32 6.9 °F 3.7 °F 1028.7 in NE 8.0 mph 14.5 mph 80 % 0.0 in
20:37 6.9 °F 3.7 °F 1028.7 in NE 6.4 mph 14.5 mph 80 % 0.0 in
20:47 6.8 °F 3.8 °F 1028.7 in NE 9.7 mph 16.1 mph 81 % 0.0 in
20:57 6.7 °F 3.7 °F 1028.7 in NNE 1.6 mph 12.9 mph 81 % 0.0 in
21:02 6.6 °F 3.7 °F 1028.7 in ENE 11.3 mph 12.9 mph 82 % 0.0 in
21:07 6.6 °F 3.7 °F 1028.7 in Calm   12.9 mph 82 % 0.0 in
21:12 6.4 °F 3.6 °F 1028.7 in NNW 1.6 mph 12.9 mph 82 % 0.0 in
21:22 6.3 °F 3.6 °F 1028.7 in NNE 3.2 mph 14.5 mph 83 % 0.0 in
21:27 6.2 °F 3.5 °F 1028.7 in NNW 4.8 mph 14.5 mph 83 % 0.0 in
21:32 6.4 °F 3.7 °F 1028.7 in NNW 3.2 mph 9.7 mph 83 % 0.0 in
21:37 6.4 °F 3.7 °F 1028.7 in NE 6.4 mph 14.5 mph 83 % 0.0 in
21:42 6.5 °F 3.6 °F 1028.7 in North 6.4 mph 14.5 mph 82 % 0.0 in
21:47 6.5 °F 3.6 °F 1029.0 in NE 4.8 mph 17.7 mph 82 % 0.0 in
21:52 6.4 °F 3.7 °F 1029.0 in NNE 3.2 mph 17.7 mph 83 % 0.0 in
21:57 6.4 °F 3.7 °F 1029.0 in NNE 12.9 mph 17.7 mph 83 % 0.0 in
22:02 6.4 °F 3.7 °F 1029.0 in NNE 4.8 mph 17.7 mph 83 % 0.0 in
22:12 6.3 °F 3.6 °F 1029.0 in North 8.0 mph 17.7 mph 83 % 0.0 in
22:17 6.2 °F 3.7 °F 1029.0 in North 8.0 mph 17.7 mph 84 % 0.0 in
22:22 6.2 °F 3.7 °F 1029.0 in NNE 4.8 mph 17.7 mph 84 % 0.0 in
22:32 6.1 °F 3.6 °F 1029.0 in ENE 4.8 mph 17.7 mph 84 % 0.0 in
22:37 5.9 °F 3.4 °F 1029.0 in NNE 4.8 mph 16.1 mph 84 % 0.0 in
22:42 6.0 °F 3.5 °F 1029.0 in NNE 8.0 mph 16.1 mph 84 % 0.0 in
22:52 5.7 °F 3.4 °F 1029.0 in North 3.2 mph 12.9 mph 85 % 0.0 in
22:57 5.6 °F 3.3 °F 1029.0 in NNW 3.2 mph 12.9 mph 85 % 0.0 in
23:02 5.4 °F 3.2 °F 1029.0 in Calm   11.3 mph 86 % 0.0 in
23:07 5.2 °F 3.1 °F 1029.0 in North 4.8 mph 6.4 mph 86 % 0.0 in
23:17 5.1 °F 3.1 °F 1029.0 in NNW 3.2 mph 8.0 mph 87 % 0.0 in
23:22 4.9 °F 2.9 °F 1029.0 in NNW 4.8 mph 8.0 mph 87 % 0.0 in
23:27 4.9 °F 3.1 °F 1029.0 in NNE 4.8 mph 8.0 mph 88 % 0.0 in
23:32 4.8 °F 3.0 °F 1029.0 in NNW 3.2 mph 8.0 mph 88 % 0.0 in
23:37 4.8 °F 3.0 °F 1029.0 in North 9.7 mph 9.7 mph 88 % 0.0 in
23:42 4.8 °F 3.0 °F 1028.7 in NE 3.2 mph 9.7 mph 88 % 0.0 in
23:47 4.8 °F 3.0 °F 1028.7 in Calm   11.3 mph 88 % 0.0 in
23:52 4.7 °F 2.9 °F 1028.7 in NE 1.6 mph 11.3 mph 88 % 0.0 in
23:57 4.6 °F 2.8 °F 1028.7 in NNW 1.6 mph 11.3 mph 88 % 0.0 in
Meteo18
Compliments of Weather Underground - 4 mb

Script developed by  Jim McMurry - jmcmurry@mwt.net Adapted for the template by  Wim van der Kuil - Leuven-Template.eu

You find our weather info also at:

European Weather Network

Weather Underground

Equipment we use:

Weather-station
Davis Vue

Weather-program
Meteobridge

Weather-server
Raspberry PI 2 B+

Provider
1 and 1

Davis Vue

Meteobridge

Raspberry PI 2 B+

1 and 1